Time;durP1;ratioP1;P1;durP2;ratioP2;P2;SDS_P1;SDS_P2;PMS_P1;PMS_P2;Temp;Humidity;BMP_temperature;BMP_pressure;BME280_temperature;BME280_humidity;BME280_pressure;Samples;Min_cycle;Max_cycle;Signal;HPM_P1;HPM_P2
2023/10/08 00:01:12;;;;;;;10.18;3.53;;;15.70;96.50;;;;;;5047778;28;20035;-71
2023/10/08 00:03:38;;;;;;;9.27;4.00;;;15.60;96.50;;;;;;5048133;28;20103;-71
2023/10/08 00:06:12;;;;;;;10.73;4.35;;;15.60;96.30;;;;;;5048918;28;20037;-71
2023/10/08 00:08:38;;;;;;;14.43;3.60;;;15.70;96.40;;;;;;5048280;28;20033;-70
2023/10/08 00:11:07;;;;;;;13.52;4.22;;;15.70;96.00;;;;;;5046776;28;20075;-71
2023/10/08 00:13:43;;;;;;;8.85;3.55;;;15.80;96.60;;;;;;5047752;28;20482;-71
2023/10/08 00:16:16;;;;;;;12.40;3.90;;;15.70;96.60;;;;;;5048842;28;20107;-71
2023/10/08 00:18:48;;;;;;;9.52;3.63;;;15.70;96.30;;;;;;5048120;28;20477;-71
2023/10/08 00:23:41;;;;;;;9.85;3.90;;;15.60;97.00;;;;;;5047547;28;20033;-71
2023/10/08 00:26:08;;;;;;;11.73;3.95;;;15.60;97.40;;;;;;5048627;28;20068;-71
2023/10/08 00:28:34;;;;;;;10.23;3.70;;;15.50;97.00;;;;;;5047847;28;20408;-70
2023/10/08 00:31:11;;;;;;;15.77;3.95;;;15.50;96.60;;;;;;5048509;28;20029;-71
2023/10/08 00:33:37;;;;;;;8.70;3.85;;;15.60;96.60;;;;;;5047786;28;20119;-71
2023/10/08 00:36:17;;;;;;;12.25;3.88;;;15.50;96.40;;;;;;5048785;28;20021;-71
2023/10/08 00:38:59;;;;;;;11.70;3.75;;;15.50;96.60;;;;;;5047792;28;20053;-71
2023/10/08 00:41:30;;;;;;;9.98;4.03;;;15.50;96.10;;;;;;5047788;28;20040;-70
2023/10/08 00:43:59;;;;;;;13.55;4.45;;;15.50;96.40;;;;;;5044949;28;20068;-70
2023/10/08 00:46:32;;;;;;;15.20;4.03;;;15.50;96.00;;;;;;5047664;28;20033;-70
2023/10/08 00:49:10;;;;;;;15.52;3.95;;;15.40;96.50;;;;;;5046917;28;20469;-71
2023/10/08 00:51:40;;;;;;;12.05;4.10;;;15.40;96.10;;;;;;5046136;28;20036;-70
2023/10/08 00:54:08;;;;;;;9.93;3.85;;;15.50;96.00;;;;;;5048187;28;20047;-70
2023/10/08 00:59:44;;;;;;;11.02;4.20;;;15.50;96.10;;;;;;5038227;28;20347;-70
2023/10/08 01:02:15;;;;;;;12.63;3.92;;;15.40;95.60;;;;;;5047747;28;20033;-70
2023/10/08 01:04:43;;;;;;;13.13;4.05;;;15.50;95.50;;;;;;5047263;28;20036;-70
2023/10/08 01:07:15;;;;;;;14.63;4.07;;;15.50;95.70;;;;;;5047780;28;20044;-70
2023/10/08 01:09:42;;;;;;;10.43;3.92;;;15.50;95.70;;;;;;5047335;28;20162;-70
2023/10/08 01:12:13;;;;;;;12.90;3.95;;;15.50;95.60;;;;;;5047917;28;20363;-70
2023/10/08 01:14:42;;;;;;;12.65;4.13;;;15.40;95.90;;;;;;5047197;28;20038;-70
2023/10/08 01:17:08;;;;;;;12.10;4.15;;;15.40;95.90;;;;;;5047963;28;20029;-70
2023/10/08 01:19:41;;;;;;;10.52;4.00;;;15.30;96.50;;;;;;5046949;28;20493;-70
2023/10/08 01:22:08;;;;;;;13.77;3.97;;;15.20;96.50;;;;;;5048052;28;20025;-70
2023/10/08 01:24:37;;;;;;;11.95;3.80;;;15.10;96.80;;;;;;5046901;28;20123;-71
2023/10/08 01:27:09;;;;;;;9.55;4.43;;;15.10;97.10;;;;;;5046480;28;20082;-71
2023/10/08 01:29:36;;;;;;;9.80;3.83;;;15.00;97.10;;;;;;5047452;28;20052;-70
2023/10/08 01:32:02;;;;;;;11.50;3.63;;;14.90;97.60;;;;;;5047734;28;20033;-71
2023/10/08 01:34:30;;;;;;;12.40;4.18;;;14.90;97.80;;;;;;5047194;28;20036;-71
2023/10/08 01:37:01;;;;;;;10.40;3.67;;;14.80;98.00;;;;;;5047461;28;20056;-71
2023/10/08 01:39:28;;;;;;;12.45;4.22;;;14.80;98.20;;;;;;5047068;28;20482;-71
2023/10/08 01:41:53;;;;;;;9.63;4.15;;;14.70;98.50;;;;;;5047550;28;20032;-71
2023/10/08 01:44:19;;;;;;;10.65;3.67;;;14.70;98.40;;;;;;5047569;28;20021;-71
2023/10/08 01:46:45;;;;;;;9.80;3.90;;;14.70;98.50;;;;;;5047052;28;20761;-71
2023/10/08 01:49:16;;;;;;;9.32;3.85;;;14.80;98.40;;;;;;5032955;28;20037;-71
2023/10/08 01:51:49;;;;;;;9.60;4.00;;;14.80;98.30;;;;;;5026894;28;20117;-71
2023/10/08 01:54:17;;;;;;;11.05;3.97;;;14.90;98.30;;;;;;5027589;28;20946;-71
2023/10/08 01:56:43;;;;;;;14.82;3.97;;;14.80;98.20;;;;;;5025457;28;20490;-71
2023/10/08 01:59:15;;;;;;;13.43;4.18;;;14.90;98.40;;;;;;5027690;28;20082;-71
2023/10/08 02:01:42;;;;;;;12.27;3.83;;;14.90;98.30;;;;;;5034419;28;20033;-71
2023/10/08 02:04:09;;;;;;;11.55;3.97;;;14.90;98.10;;;;;;5047406;28;20043;-71
2023/10/08 02:06:35;;;;;;;9.18;3.47;;;14.90;98.00;;;;;;5046517;28;20398;-71
2023/10/08 02:09:08;;;;;;;11.77;4.25;;;14.90;98.90;;;;;;5046012;28;20033;-71
2023/10/08 02:11:50;;;;;;;10.82;3.55;;;14.80;99.90;;;;;;5046795;28;20032;-71
2023/10/08 02:14:20;;;;;;;12.52;3.55;;;14.60;99.90;;;;;;5046655;28;20032;-71
2023/10/08 02:16:47;;;;;;;10.25;3.67;;;14.50;99.90;;;;;;5050188;28;20060;-71
2023/10/08 02:19:18;;;;;;;10.98;4.32;;;14.40;99.90;;;;;;5050964;28;20029;-71
2023/10/08 02:21:46;;;;;;;10.45;3.92;;;14.30;99.90;;;;;;5050142;28;20029;-71
2023/10/08 02:24:12;;;;;;;10.93;4.25;;;14.10;99.90;;;;;;5050732;28;20033;-71
2023/10/08 02:26:39;;;;;;;10.60;3.67;;;13.90;99.90;;;;;;5049839;28;20098;-71
2023/10/08 02:29:10;;;;;;;10.60;3.65;;;13.90;99.90;;;;;;5050575;28;20493;-71
2023/10/08 02:31:43;;;;;;;10.90;3.83;;;13.90;99.90;;;;;;5048600;28;20429;-71
2023/10/08 02:34:09;;;;;;;10.23;3.67;;;13.90;99.90;;;;;;5050680;28;20047;-71
2023/10/08 02:36:36;;;;;;;12.38;3.50;;;14.00;99.90;;;;;;5049620;28;20032;-71
2023/10/08 02:39:06;;;;;;;13.05;4.00;;;14.00;99.90;;;;;;5050754;28;20139;-71
2023/10/08 02:41:32;;;;;;;14.10;3.75;;;14.10;99.90;;;;;;5050227;28;20110;-71
2023/10/08 02:43:59;;;;;;;12.88;3.85;;;14.10;99.90;;;;;;5050334;28;20048;-70
2023/10/08 02:46:26;;;;;;;10.88;3.97;;;14.20;99.90;;;;;;5047338;28;20044;-71
2023/10/08 02:48:52;;;;;;;8.52;3.30;;;14.20;99.70;;;;;;5049686;28;20024;-71
2023/10/08 02:51:20;;;;;;;12.00;3.85;;;14.30;99.60;;;;;;5050673;28;20037;-70
2023/10/08 02:53:46;;;;;;;10.02;4.03;;;14.30;99.60;;;;;;5049354;28;20044;-71
2023/10/08 02:56:13;;;;;;;9.88;3.85;;;14.40;99.70;;;;;;5050107;28;20029;-70
2023/10/08 02:58:47;;;;;;;15.48;3.63;;;14.30;99.90;;;;;;5049443;28;20139;-71
2023/10/08 03:01:12;;;;;;;14.85;4.13;;;14.20;99.90;;;;;;5050200;28;20103;-71
2023/10/08 03:03:42;;;;;;;12.70;4.13;;;14.20;99.90;;;;;;5049266;28;20162;-71
2023/10/08 03:06:14;;;;;;;12.13;3.80;;;14.20;99.90;;;;;;5049952;28;20060;-71
2023/10/08 03:08:41;;;;;;;9.13;3.78;;;14.20;99.80;;;;;;5049338;28;20044;-71
2023/10/08 03:11:16;;;;;;;11.13;3.88;;;14.30;99.40;;;;;;5049873;28;20476;-71
2023/10/08 03:13:51;;;;;;;9.10;4.20;;;14.40;99.30;;;;;;5048991;28;20432;-70
2023/10/08 03:16:21;;;;;;;9.98;3.80;;;14.40;99.30;;;;;;5049961;28;20082;-71
2023/10/08 03:18:50;;;;;;;14.43;3.90;;;14.50;98.90;;;;;;5049068;28;20037;-71
2023/10/08 03:21:20;;;;;;;10.23;4.45;;;14.50;98.80;;;;;;5049838;28;20036;-71
2023/10/08 03:23:50;;;;;;;11.38;4.22;;;14.50;98.70;;;;;;5048946;28;20102;-71
2023/10/08 03:29:15;;;;;;;13.55;3.53;;;14.50;98.90;;;;;;5026150;28;20033;-71
2023/10/08 03:34:14;;;;;;;12.05;3.65;;;14.40;99.40;;;;;;5048319;28;20024;-71
2023/10/08 03:36:47;;;;;;;12.68;4.72;;;14.30;99.90;;;;;;5048326;28;20021;-71
2023/10/08 03:39:20;;;;;;;11.07;3.65;;;14.10;99.90;;;;;;5040209;28;20029;-71
2023/10/08 03:42:07;;;;;;;11.85;3.92;;;13.90;99.90;;;;;;5028666;28;20120;-71
2023/10/08 03:44:37;;;;;;;10.65;4.05;;;13.90;99.90;;;;;;5030379;28;20105;-71
2023/10/08 03:47:10;;;;;;;10.25;3.67;;;13.80;99.90;;;;;;5049306;28;20040;-71
2023/10/08 03:49:41;;;;;;;9.20;3.80;;;13.70;99.90;;;;;;5048852;28;20138;-71
2023/10/08 03:52:07;;;;;;;10.30;3.65;;;13.50;99.90;;;;;;5048943;28;20401;-70
2023/10/08 03:54:37;;;;;;;7.88;3.47;;;13.30;99.90;;;;;;5048937;28;20029;-71
2023/10/08 03:57:05;;;;;;;12.00;4.18;;;13.10;99.90;;;;;;5049183;28;20021;-71
2023/10/08 03:59:31;;;;;;;10.18;4.10;;;12.90;99.90;;;;;;5049144;28;20029;-71
2023/10/08 04:02:23;;;;;;;10.32;4.28;;;12.70;99.90;;;;;;5048235;28;20025;-71
2023/10/08 04:04:49;;;;;;;10.75;3.28;;;12.50;99.90;;;;;;5048211;28;20032;-71
2023/10/08 04:12:52;;;;;;;11.38;3.88;;;12.40;99.90;;;;;;5031768;28;20105;-71
2023/10/08 04:15:19;;;;;;;14.77;4.05;;;12.30;99.90;;;;;;5048687;28;20028;-70
2023/10/08 04:17:45;;;;;;;10.93;3.90;;;12.30;99.90;;;;;;5048102;28;20318;-71
2023/10/08 04:20:33;;;;;;;10.38;3.42;;;12.30;99.90;;;;;;5048368;28;20172;-70
2023/10/08 04:23:13;;;;;;;15.77;4.22;;;12.20;99.90;;;;;;5047810;28;20028;-70
2023/10/08 04:25:39;;;;;;;11.05;3.50;;;12.20;99.90;;;;;;5047936;28;20033;-70
2023/10/08 04:28:13;;;;;;;8.18;3.53;;;12.60;99.90;;;;;;5047179;28;20393;-70
2023/10/08 04:30:41;;;;;;;10.45;3.50;;;13.10;99.90;;;;;;5047959;28;20515;-70
2023/10/08 04:33:14;;;;;;;10.75;3.58;;;13.50;99.90;;;;;;5048496;28;20466;-70
2023/10/08 04:35:48;;;;;;;12.15;3.60;;;13.90;99.90;;;;;;5047884;28;20021;-70
2023/10/08 04:38:21;;;;;;;10.18;3.35;;;14.10;99.90;;;;;;5047711;28;20482;-70
2023/10/08 04:40:48;;;;;;;13.27;3.63;;;14.20;99.90;;;;;;5047371;28;20389;-70
2023/10/08 04:43:27;;;;;;;15.15;3.83;;;14.30;99.90;;;;;;5048360;28;20051;-70
2023/10/08 04:45:57;;;;;;;14.70;3.40;;;14.40;99.90;;;;;;5047411;28;20087;-70
2023/10/08 04:48:27;;;;;;;11.67;3.20;;;14.50;99.90;;;;;;5048409;28;20037;-71
2023/10/08 04:50:59;;;;;;;14.27;3.65;;;14.50;99.90;;;;;;5047373;28;20271;-69
2023/10/08 04:53:37;;;;;;;18.13;4.10;;;14.60;99.90;;;;;;5045032;28;20040;-70
2023/10/08 04:56:05;;;;;;;12.35;3.60;;;14.50;99.90;;;;;;5047647;28;20025;-70
2023/10/08 04:58:40;;;;;;;16.95;3.47;;;14.60;99.90;;;;;;5046699;28;20032;-70
2023/10/08 05:01:20;;;;;;;11.18;3.35;;;14.70;99.90;;;;;;5048070;28;20091;-70
2023/10/08 05:17:03;;;;;;;10.52;3.28;;;15.10;99.10;;;;;;5027250;28;20018;-70
2023/10/08 05:22:18;;;;;;;13.25;4.10;;;14.80;99.90;;;;;;5027861;28;20053;-70
2023/10/08 05:25:07;;;;;;;8.73;3.25;;;14.40;99.90;;;;;;5027156;28;20424;-70
2023/10/08 05:38:22;;;;;;;12.20;3.63;;;12.60;99.90;;;;;;5027451;28;20470;-70
2023/10/08 05:51:44;;;;;;;11.65;3.83;;;12.40;99.90;;;;;;5031436;28;20032;-70
2023/10/08 05:59:52;;;;;;;11.73;3.63;;;12.60;99.90;;;;;;5031334;28;20022;-71
2023/10/08 06:08:12;;;;;;;9.25;3.20;;;13.10;99.90;;;;;;5031154;28;20033;-70
2023/10/08 06:18:25;;;;;;;9.35;3.65;;;13.20;99.90;;;;;;5051033;28;20032;-70
2023/10/08 06:21:07;;;;;;;13.98;3.65;;;13.40;99.90;;;;;;5050357;28;20072;-70
2023/10/08 06:23:37;;;;;;;15.60;4.15;;;13.60;99.90;;;;;;5050846;28;20029;-70
2023/10/08 06:26:14;;;;;;;11.80;3.30;;;13.70;99.90;;;;;;5050406;28;20093;-70
2023/10/08 06:28:44;;;;;;;8.75;3.08;;;14.00;99.90;;;;;;5051355;28;20489;-70
2023/10/08 06:31:16;;;;;;;11.85;3.70;;;14.30;99.90;;;;;;5050622;28;20078;-70
2023/10/08 06:33:43;;;;;;;15.07;3.58;;;14.50;99.90;;;;;;5049125;28;20044;-70
2023/10/08 06:36:13;;;;;;;9.88;3.67;;;14.60;99.90;;;;;;5050072;28;20078;-70
2023/10/08 06:38:40;;;;;;;9.45;3.35;;;14.50;99.90;;;;;;5050231;28;20438;-70
2023/10/08 06:43:51;;;;;;;10.93;2.97;;;14.70;99.90;;;;;;5050531;28;20750;-69
2023/10/08 06:46:19;;;;;;;10.23;3.45;;;14.80;99.90;;;;;;5050583;28;20025;-70
2023/10/08 06:48:46;;;;;;;16.70;3.65;;;14.90;99.90;;;;;;5050342;28;20482;-70
2023/10/08 06:51:12;;;;;;;13.30;3.53;;;15.00;99.90;;;;;;5050136;28;20029;-69
2023/10/08 06:53:42;;;;;;;13.68;3.55;;;15.10;99.90;;;;;;5050342;28;20032;-69
2023/10/08 06:56:09;;;;;;;14.75;3.92;;;15.20;99.90;;;;;;5049369;28;20098;-70
2023/10/08 06:58:35;;;;;;;14.98;3.72;;;15.20;99.90;;;;;;5050295;28;20112;-70
2023/10/08 07:01:05;;;;;;;11.45;3.30;;;15.20;99.90;;;;;;5048569;28;20124;-70
2023/10/08 07:03:34;;;;;;;12.52;4.10;;;15.30;99.90;;;;;;5046703;28;20039;-71
2023/10/08 07:06:02;;;;;;;25.75;3.95;;;15.30;99.90;;;;;;5049221;28;20064;-70
2023/10/08 07:08:32;;;;;;;12.07;3.80;;;15.40;99.90;;;;;;5049999;28;20465;-71
2023/10/08 07:11:01;;;;;;;14.40;3.60;;;15.50;99.90;;;;;;5049312;28;20025;-71
2023/10/08 07:13:29;;;;;;;18.48;4.07;;;15.50;99.90;;;;;;5049882;28;20458;-71
2023/10/08 07:15:56;;;;;;;21.75;3.60;;;15.60;99.90;;;;;;5049057;28;20021;-70
2023/10/08 07:18:24;;;;;;;12.38;4.13;;;15.60;99.90;;;;;;5050056;28;20028;-70
2023/10/08 07:20:56;;;;;;;15.10;4.35;;;15.50;99.90;;;;;;5048968;28;20071;-70
2023/10/08 07:23:25;;;;;;;9.18;3.50;;;15.40;99.90;;;;;;5049629;28;20035;-70
2023/10/08 07:26:10;;;;;;;16.13;3.53;;;15.40;99.90;;;;;;5047575;28;20086;-70
2023/10/08 07:28:40;;;;;;;11.60;4.07;;;15.50;99.90;;;;;;5050127;28;20044;-70
2023/10/08 07:31:16;;;;;;;12.43;4.35;;;15.40;99.90;;;;;;5047683;28;20025;-70
2023/10/08 07:33:47;;;;;;;14.85;4.07;;;15.50;99.90;;;;;;5048482;28;20062;-70
2023/10/08 07:36:14;;;;;;;12.05;4.07;;;15.40;99.90;;;;;;5042961;28;20121;-72
2023/10/08 07:38:43;;;;;;;11.25;3.78;;;15.30;99.90;;;;;;5029644;28;20057;-73
2023/10/08 07:41:12;;;;;;;12.02;3.88;;;15.40;99.90;;;;;;5029350;28;20554;-71
2023/10/08 07:43:39;;;;;;;16.20;3.70;;;15.40;99.90;;;;;;5029566;28;20041;-70
2023/10/08 07:46:05;;;;;;;14.02;3.53;;;15.40;99.90;;;;;;5041146;28;20033;-70
2023/10/08 07:48:31;;;;;;;13.25;3.85;;;15.60;99.90;;;;;;5049767;28;20029;-70
2023/10/08 07:50:57;;;;;;;12.80;3.97;;;15.60;99.90;;;;;;5048795;28;20036;-70
2023/10/08 07:53:37;;;;;;;16.38;4.20;;;15.70;99.90;;;;;;5049598;28;20107;-70
2023/10/08 07:56:06;;;;;;;12.95;3.80;;;15.80;99.90;;;;;;5048658;28;20067;-70
2023/10/08 07:58:36;;;;;;;15.73;3.63;;;15.90;99.90;;;;;;5049495;28;20408;-70
2023/10/08 08:01:06;;;;;;;12.48;3.95;;;15.90;99.90;;;;;;5047096;28;20051;-70
2023/10/08 08:03:34;;;;;;;;;;;16.00;99.90;;;;;;5049786;28;20124;-70
2023/10/08 08:06:00;;;;;;;11.23;3.55;;;16.10;99.90;;;;;;5048379;28;19909;-70
2023/10/08 08:08:27;;;;;;;11.80;3.42;;;16.20;99.90;;;;;;5049273;28;20525;-70
2023/10/08 08:10:57;;;;;;;12.52;3.55;;;16.50;99.90;;;;;;5048366;28;20028;-70
2023/10/08 08:13:27;;;;;;;13.75;3.90;;;16.70;99.90;;;;;;5048236;28;20036;-70
2023/10/08 08:15:58;;;;;;;16.85;3.42;;;16.80;99.90;;;;;;5048262;28;20024;-70
2023/10/08 08:18:24;;;;;;;;;;;16.70;99.90;;;;;;5049179;28;20049;-70
2023/10/08 08:20:50;;;;;;;11.88;3.90;;;16.90;99.90;;;;;;5048389;28;19909;-70
2023/10/08 08:23:16;;;;;;;16.65;4.28;;;17.00;99.90;;;;;;5048443;28;20074;-70
2023/10/08 08:25:45;;;;;;;13.13;3.80;;;17.30;99.90;;;;;;5049024;28;20029;-71
2023/10/08 08:28:20;;;;;;;19.13;4.22;;;17.60;99.90;;;;;;5048114;28;20107;-71
2023/10/08 08:30:48;;;;;;;15.52;3.40;;;17.70;99.90;;;;;;5049145;28;20028;-70
2023/10/08 08:33:21;;;;;;;11.27;3.53;;;17.70;99.90;;;;;;5046622;28;20029;-71
2023/10/08 08:35:47;;;;;;;16.08;3.67;;;17.80;99.90;;;;;;5048931;28;20108;-71
2023/10/08 08:38:13;;;;;;;10.20;3.85;;;18.00;99.90;;;;;;5047746;28;20279;-71
2023/10/08 08:40:39;;;;;;;13.32;3.67;;;18.00;99.90;;;;;;5048701;28;20032;-70
2023/10/08 08:43:06;;;;;;;24.00;3.60;;;18.10;99.90;;;;;;5047766;28;20021;-71
2023/10/08 08:45:33;;;;;;;13.00;3.58;;;18.00;99.90;;;;;;5048657;28;20064;-70
2023/10/08 08:48:00;;;;;;;11.02;3.40;;;17.90;99.90;;;;;;5047642;28;20452;-70
2023/10/08 08:50:26;;;;;;;14.45;3.65;;;17.70;99.90;;;;;;5047286;28;20032;-71
2023/10/08 08:52:52;;;;;;;12.43;3.45;;;17.60;99.90;;;;;;5048231;28;20032;-73
2023/10/08 08:55:20;;;;;;;10.65;3.30;;;17.80;99.90;;;;;;5048130;28;20043;-71
2023/10/08 08:57:48;;;;;;;11.85;4.05;;;17.90;99.90;;;;;;5047101;28;20626;-71
2023/10/08 09:00:17;;;;;;;14.35;3.50;;;17.90;99.90;;;;;;5047721;28;20456;-71
2023/10/08 09:02:44;;;;;;;17.40;3.70;;;18.00;99.90;;;;;;5048299;28;20033;-71
2023/10/08 09:05:25;;;;;;;12.73;3.70;;;18.10;99.90;;;;;;5047678;28;20096;-71
2023/10/08 09:08:04;;;;;;;11.75;3.88;;;18.20;99.90;;;;;;5043563;28;20556;-72
2023/10/08 09:10:36;;;;;;;10.43;3.70;;;18.40;99.90;;;;;;5048698;28;20040;-71
2023/10/08 09:13:04;;;;;;;8.15;3.15;;;18.70;99.90;;;;;;5047584;28;20074;-71
2023/10/08 09:15:32;;;;;;;8.13;3.63;;;18.90;99.90;;;;;;5048337;28;20021;-72
2023/10/08 09:18:02;;;;;;;13.02;3.83;;;19.10;99.90;;;;;;5046105;28;20021;-72
2023/10/08 09:20:28;;;;;;;8.68;3.47;;;19.40;99.90;;;;;;5048487;28;20028;-72
2023/10/08 09:23:11;;;;;;;12.93;4.22;;;19.70;99.90;;;;;;5047979;28;20032;-71
2023/10/08 09:25:38;;;;;;;10.80;4.07;;;19.90;99.90;;;;;;5052555;28;20025;-72
2023/10/08 09:28:07;;;;;;;18.85;4.40;;;19.90;99.90;;;;;;5051685;28;20032;-72
2023/10/08 09:30:37;;;;;;;15.48;3.80;;;20.10;99.90;;;;;;5052453;28;20025;-72
2023/10/08 09:33:12;;;;;;;10.85;3.70;;;20.10;99.90;;;;;;5043527;28;20654;-71
2023/10/08 09:35:38;;;;;;;12.95;3.70;;;20.20;99.90;;;;;;5032245;28;20039;-72
2023/10/08 09:38:05;;;;;;;11.02;3.42;;;20.20;99.90;;;;;;5031094;28;20140;-71
2023/10/08 09:40:31;;;;;;;9.52;3.53;;;20.40;99.90;;;;;;5032349;28;20034;-71
2023/10/08 09:42:57;;;;;;;13.40;3.20;;;20.40;99.90;;;;;;5031548;28;20382;-71
2023/10/08 09:45:23;;;;;;;12.63;3.80;;;20.40;99.90;;;;;;5039821;28;20041;-72
2023/10/08 09:47:55;;;;;;;8.07;3.83;;;20.40;99.90;;;;;;5052077;28;20021;-71
2023/10/08 09:50:32;;;;;;;7.75;3.80;;;20.20;99.90;;;;;;5051661;28;20028;-72
2023/10/08 09:53:16;;;;;;;8.60;4.25;;;20.20;99.90;;;;;;5051137;28;20036;-72
2023/10/08 09:55:45;;;;;;;15.65;3.92;;;20.10;99.90;;;;;;5050392;28;20377;-71
2023/10/08 09:58:14;;;;;;;8.65;3.47;;;20.10;99.90;;;;;;5051054;28;20079;-71
2023/10/08 10:00:41;;;;;;;9.40;3.30;;;20.00;99.90;;;;;;5051697;28;20082;-71
2023/10/08 10:03:09;;;;;;;13.80;4.35;;;19.90;99.90;;;;;;5050656;28;20025;-71
2023/10/08 10:05:37;;;;;;;13.30;4.10;;;19.90;99.90;;;;;;5051645;28;20028;-72
2023/10/08 10:08:09;;;;;;;11.27;3.92;;;20.00;99.90;;;;;;5050286;28;20485;-71
2023/10/08 10:10:39;;;;;;;16.70;4.20;;;20.20;99.90;;;;;;5051500;28;20039;-71
2023/10/08 10:13:09;;;;;;;9.33;3.77;;;20.20;99.90;;;;;;5050730;28;20167;-71
2023/10/08 10:15:38;;;;;;;9.38;3.63;;;20.40;99.90;;;;;;5051659;28;20345;-71
2023/10/08 10:18:14;;;;;;;12.30;3.90;;;20.60;99.90;;;;;;5049792;28;20361;-71
2023/10/08 10:20:46;;;;;;;12.45;3.70;;;20.50;99.90;;;;;;5031282;28;20034;-71
2023/10/08 10:23:37;;;;;;;7.88;3.30;;;20.60;99.90;;;;;;5030499;28;20063;-71
2023/10/08 10:26:04;;;;;;;9.15;4.20;;;20.50;99.90;;;;;;5030469;28;20592;-71
2023/10/08 10:28:30;;;;;;;13.73;4.57;;;20.40;99.90;;;;;;5031266;28;20029;-72
2023/10/08 10:30:56;;;;;;;11.75;3.92;;;20.30;99.90;;;;;;5029770;28;20037;-71
2023/10/08 10:33:32;;;;;;;10.40;4.13;;;20.40;99.90;;;;;;5030648;28;20035;-71
2023/10/08 10:36:00;;;;;;;11.95;4.18;;;20.60;99.90;;;;;;5029660;28;20428;-72
2023/10/08 10:38:26;;;;;;;12.38;3.80;;;20.40;99.90;;;;;;5031303;28;20433;-72
2023/10/08 10:40:58;;;;;;;11.75;3.92;;;20.10;99.90;;;;;;5029561;28;20037;-71
2023/10/08 10:43:32;;;;;;;8.48;3.65;;;20.00;99.90;;;;;;5030613;28;20029;-72
2023/10/08 10:46:19;;;;;;;12.07;3.70;;;19.90;99.90;;;;;;5042077;28;20032;-71
2023/10/08 10:48:57;;;;;;;18.50;4.03;;;19.90;99.90;;;;;;5050915;28;20029;-70
2023/10/08 10:51:23;;;;;;;14.77;4.28;;;19.90;99.90;;;;;;5050125;28;20033;-70
2023/10/08 10:54:07;;;;;;;11.13;3.80;;;19.90;99.90;;;;;;5050891;28;20055;-70
2023/10/08 10:56:40;;;;;;;9.05;3.70;;;19.90;99.90;;;;;;5050582;28;20074;-70
2023/10/08 10:59:27;;;;;;;15.88;3.78;;;19.80;99.90;;;;;;5049823;28;20048;-71
2023/10/08 11:02:05;;;;;;;12.07;4.25;;;19.80;99.90;;;;;;5049060;28;20060;-70
2023/10/08 11:04:31;;;;;;;12.20;3.70;;;19.90;99.90;;;;;;5050484;28;20163;-71
2023/10/08 11:07:00;;;;;;;16.45;4.57;;;20.10;99.90;;;;;;5050154;28;20033;-71
2023/10/08 11:09:36;;;;;;;7.85;3.70;;;20.20;99.90;;;;;;5050149;28;20032;-71
2023/10/08 11:12:02;;;;;;;13.55;3.97;;;20.40;99.90;;;;;;5049998;28;20109;-71
2023/10/08 11:14:28;;;;;;;9.68;4.03;;;20.40;99.90;;;;;;5049360;28;20036;-70
2023/10/08 11:16:55;;;;;;;8.68;3.72;;;20.50;99.90;;;;;;5049873;28;20024;-72
2023/10/08 11:19:21;;;;;;;20.80;3.92;;;20.60;99.90;;;;;;5049431;28;20032;-71
2023/10/08 11:21:50;;;;;;;13.20;4.25;;;20.80;99.90;;;;;;5048680;28;20029;-71
2023/10/08 11:24:33;;;;;;;13.48;3.97;;;20.90;99.90;;;;;;5041864;28;20040;-71
2023/10/08 11:27:23;;;;;;;16.05;3.92;;;21.00;99.90;;;;;;5030402;28;20040;-70
2023/10/08 11:29:59;;;;;;;13.07;3.88;;;20.90;99.90;;;;;;5030288;28;20033;-71
2023/10/08 11:32:27;;;;;;;16.35;4.05;;;20.70;99.90;;;;;;5029560;28;20034;-72
2023/10/08 11:34:59;;;;;;;11.50;4.40;;;20.70;99.90;;;;;;5029696;28;20481;-71
2023/10/08 11:37:29;;;;;;;9.10;4.10;;;20.90;99.90;;;;;;5028849;28;20099;-71
2023/10/08 11:39:58;;;;;;;23.48;4.18;;;20.90;99.90;;;;;;5029859;28;20095;-71
2023/10/08 11:44:59;;;;;;;12.80;4.10;;;20.60;99.90;;;;;;5034442;28;20124;-71
2023/10/08 11:47:35;;;;;;;12.93;3.90;;;20.60;99.90;;;;;;5048519;28;20029;-70
2023/10/08 11:50:10;;;;;;;13.90;3.88;;;20.80;99.90;;;;;;5049594;28;20461;-70
2023/10/08 11:52:41;;;;;;;12.75;3.83;;;20.90;99.90;;;;;;5049485;28;20055;-70
2023/10/08 11:55:18;;;;;;;10.15;3.40;;;21.10;99.90;;;;;;5047263;28;20036;-70
2023/10/08 11:57:48;;;;;;;14.65;4.18;;;21.40;99.90;;;;;;5049570;28;20032;-70
2023/10/08 12:00:20;;;;;;;;;;;21.60;99.90;;;;;;5031664;28;20373;-70
2023/10/08 12:02:55;;;;;;;22.58;4.32;;;21.70;99.90;;;;;;5049352;28;19940;-70
2023/10/08 12:05:24;;;;;;;17.13;4.00;;;21.60;99.90;;;;;;5048480;28;20083;-70
2023/10/08 12:07:57;;;;;;;12.35;3.90;;;21.30;99.90;;;;;;5049354;28;20537;-71
2023/10/08 12:10:23;;;;;;;14.45;4.18;;;21.10;99.80;;;;;;5048521;28;20087;-71
2023/10/08 12:12:53;;;;;;;11.25;3.63;;;20.90;99.80;;;;;;5048881;28;20075;-70
2023/10/08 12:15:26;;;;;;;8.45;3.80;;;20.90;99.90;;;;;;5048263;28;20385;-71
2023/10/08 12:20:43;;;;;;;9.70;3.72;;;20.90;99.90;;;;;;5029210;28;20845;-71
2023/10/08 12:23:24;;;;;;;13.07;4.07;;;20.90;99.90;;;;;;5028211;28;20029;-71
2023/10/08 12:25:56;;;;;;;16.75;4.22;;;21.00;99.60;;;;;;5029025;28;20029;-71
2023/10/08 12:28:23;;;;;;;11.00;3.92;;;21.30;99.90;;;;;;5028276;28;20037;-70
2023/10/08 12:30:52;;;;;;;15.90;4.50;;;21.40;99.20;;;;;;5029269;28;20177;-71
2023/10/08 12:33:19;;;;;;;12.38;4.60;;;21.30;99.00;;;;;;5028095;28;20029;-70
2023/10/08 12:35:48;;;;;;;13.35;4.35;;;21.50;99.50;;;;;;5028870;28;20053;-71
2023/10/08 12:38:14;;;;;;;11.82;4.15;;;21.90;98.00;;;;;;5027856;28;20536;-71
2023/10/08 12:40:52;;;;;;;17.45;3.88;;;22.30;99.90;;;;;;5028837;28;20042;-71
2023/10/08 12:43:27;;;;;;;15.18;5.05;;;22.60;98.20;;;;;;5027950;28;20112;-71
2023/10/08 12:45:54;;;;;;;24.40;4.40;;;23.20;96.20;;;;;;5040755;28;20392;-72
2023/10/08 12:48:22;;;;;;;18.58;4.05;;;23.40;96.30;;;;;;5047398;28;20560;-72
2023/10/08 12:50:57;;;;;;;19.48;5.25;;;23.70;95.10;;;;;;5048767;28;20021;-71
2023/10/08 12:53:27;;;;;;;13.13;4.40;;;23.80;95.80;;;;;;5047721;28;20028;-71
2023/10/08 12:55:57;;;;;;;12.50;4.28;;;23.90;96.30;;;;;;5045458;28;20037;-72
2023/10/08 12:58:25;;;;;;;16.13;4.18;;;24.20;96.00;;;;;;5051042;28;20032;-72
2023/10/08 13:00:57;;;;;;;12.82;4.72;;;24.60;95.00;;;;;;5047796;28;20032;-72
2023/10/08 13:03:25;;;;;;;11.43;3.85;;;24.70;95.10;;;;;;5046611;28;20513;-71
2023/10/08 13:05:54;;;;;;;20.00;4.65;;;24.20;93.50;;;;;;5055666;28;20040;-71
2023/10/08 13:08:20;;;;;;;13.52;4.22;;;23.60;95.30;;;;;;5049100;28;20040;-70
2023/10/08 13:10:49;;;;;;;13.30;4.25;;;23.30;96.10;;;;;;5047816;28;20045;-70
2023/10/08 13:13:14;;;;;;;14.98;4.32;;;23.50;96.10;;;;;;5048562;28;20033;-70
2023/10/08 13:15:43;;;;;;;17.55;3.65;;;23.80;96.00;;;;;;5049131;28;20040;-71
2023/10/08 13:18:09;;;;;;;15.27;4.13;;;23.80;95.10;;;;;;5050164;28;20024;-70
2023/10/08 13:20:35;;;;;;;14.80;4.28;;;24.00;94.90;;;;;;5050441;28;20040;-70
2023/10/08 13:23:01;;;;;;;10.63;3.97;;;23.90;94.00;;;;;;5047928;28;20024;-70
2023/10/08 13:25:27;;;;;;;12.93;3.90;;;23.80;95.50;;;;;;5043562;28;20086;-70
2023/10/08 13:27:54;;;;;;;17.17;4.70;;;23.60;94.80;;;;;;5050229;28;20396;-70
2023/10/08 13:30:20;;;;;;;19.35;4.40;;;23.50;95.00;;;;;;5059520;28;20103;-70
2023/10/08 13:32:46;;;;;;;19.92;4.60;;;23.50;95.30;;;;;;5051012;28;20033;-71
2023/10/08 13:35:12;;;;;;;14.05;4.30;;;23.70;94.40;;;;;;5046555;28;20044;-70
2023/10/08 13:37:37;;;;;;;14.27;4.00;;;24.00;95.60;;;;;;5057706;28;20041;-70
2023/10/08 13:40:03;;;;;;;14.50;4.22;;;23.90;95.40;;;;;;5048598;28;20104;-71
2023/10/08 13:42:29;;;;;;;26.23;4.70;;;23.80;94.00;;;;;;5048474;28;20035;-71
2023/10/08 13:44:59;;;;;;;16.52;4.43;;;23.90;96.00;;;;;;5048733;28;20036;-71
2023/10/08 13:47:26;;;;;;;12.63;4.32;;;23.80;93.80;;;;;;5047192;28;20029;-71
2023/10/08 13:49:55;;;;;;;18.20;4.28;;;24.00;94.30;;;;;;5046884;28;20041;-71
2023/10/08 13:52:20;;;;;;;13.93;3.95;;;24.20;94.40;;;;;;5045375;28;20040;-71
2023/10/08 13:54:52;;;;;;;17.15;4.80;;;24.40;96.00;;;;;;5048047;28;20041;-72
2023/10/08 13:57:21;;;;;;;18.75;4.45;;;24.90;94.20;;;;;;5047183;28;20079;-72
2023/10/08 13:59:48;;;;;;;18.73;4.73;;;25.00;92.70;;;;;;5053370;28;20490;-72
2023/10/08 14:02:14;;;;;;;17.10;4.18;;;24.70;92.50;;;;;;5047371;28;20275;-73
2023/10/08 14:04:44;;;;;;;11.68;3.88;;;24.40;93.70;;;;;;5047649;28;20432;-72
2023/10/08 14:07:16;;;;;;;15.40;4.53;;;24.60;93.10;;;;;;5056541;28;20025;-70
2023/10/08 14:09:45;;;;;;;10.68;3.83;;;24.80;93.20;;;;;;5050636;28;20108;-72
2023/10/08 14:12:13;;;;;;;15.10;3.90;;;24.50;92.40;;;;;;5057244;28;20029;-72
2023/10/08 14:14:43;;;;;;;21.65;4.22;;;24.00;93.60;;;;;;5052812;28;20468;-71